createdAt,value
2022-08-05T00:00:01.703Z,26.5
2022-08-05T00:01:13.559Z,26.4
2022-08-05T00:02:07.642Z,26.5
2022-08-05T00:03:00.865Z,26.4
2022-08-05T00:04:00.581Z,26.4
2022-08-05T00:05:00.251Z,26.4
2022-08-05T00:06:22.161Z,26.3
2022-08-05T00:07:01.442Z,26.3
2022-08-05T00:08:01.668Z,26.3
2022-08-05T00:09:01.239Z,26.3
2022-08-05T00:10:01.013Z,26.3
2022-08-05T00:11:01.363Z,26.3
2022-08-05T00:12:00.613Z,26.3
2022-08-05T00:13:01.383Z,26.3
2022-08-05T00:14:00.651Z,26.3
2022-08-05T00:15:54.176Z,26.3
2022-08-05T00:16:00.944Z,26.3
2022-08-05T00:17:01.840Z,26.3
2022-08-05T00:18:02.559Z,26.3
2022-08-05T00:19:00.880Z,26.3
2022-08-05T00:20:02.569Z,26.3
2022-08-05T00:21:00.597Z,26.3
2022-08-05T00:22:00.396Z,26.3
2022-08-05T00:23:12.472Z,26.3
2022-08-05T00:24:10.561Z,26.3
2022-08-05T00:25:01.260Z,26.3
2022-08-05T00:26:01.662Z,26.3
2022-08-05T00:27:00.799Z,26.3
2022-08-05T00:28:01.448Z,26.3
2022-08-05T00:29:01.235Z,26.3
2022-08-05T00:30:03.159Z,26.3
2022-08-05T00:31:07.702Z,26.3
2022-08-05T00:32:12.651Z,26.3
2022-08-05T00:33:02.104Z,26.3
2022-08-05T00:34:56.561Z,26.2
2022-08-05T00:35:06.932Z,26.2
2022-08-05T00:36:15.988Z,26.1
2022-08-05T00:37:10.922Z,26.2
2022-08-05T00:38:01.292Z,26.1
2022-08-05T00:39:02.519Z,26.1
2022-08-05T00:40:01.231Z,26.1
2022-08-05T00:41:12.134Z,26.1
2022-08-05T00:42:03.058Z,26.1
2022-08-05T00:43:00.932Z,26.1
2022-08-05T00:44:00.860Z,26.1
2022-08-05T00:45:00.850Z,26.1
2022-08-05T00:46:14.934Z,26
2022-08-05T00:47:03.899Z,26
2022-08-05T00:48:05.737Z,26
2022-08-05T00:49:03.491Z,26
2022-08-05T00:50:00.756Z,26
2022-08-05T00:51:51.410Z,26
2022-08-05T00:52:01.399Z,26
2022-08-05T00:53:01.014Z,26
2022-08-05T00:54:02.999Z,26
2022-08-05T00:55:01.426Z,26
2022-08-05T00:56:00.921Z,26
2022-08-05T00:57:01.039Z,25.9
2022-08-05T00:58:01.352Z,25.9
2022-08-05T00:59:00.766Z,25.8
2022-08-05T01:00:01.039Z,25.9
2022-08-05T01:01:00.816Z,25.8
2022-08-05T01:02:00.696Z,25.8
2022-08-05T01:03:01.326Z,25.8
2022-08-05T01:04:01.402Z,25.8
2022-08-05T01:05:01.201Z,25.8
2022-08-05T01:06:01.486Z,25.8
2022-08-05T01:07:02.693Z,25.8
2022-08-05T01:08:40.002Z,25.8
2022-08-05T01:09:01.097Z,25.7
2022-08-05T01:10:01.223Z,25.7
2022-08-05T01:11:00.809Z,25.6
2022-08-05T01:12:04.777Z,25.6
2022-08-05T01:13:12.780Z,25.6
2022-08-05T01:14:00.913Z,25.6
2022-08-05T01:15:03.840Z,25.6
2022-08-05T01:16:00.874Z,25.6
2022-08-05T01:17:00.852Z,25.6
2022-08-05T01:18:01.054Z,25.6
2022-08-05T01:19:01.073Z,25.6
2022-08-05T01:20:03.265Z,25.6
2022-08-05T01:21:00.878Z,25.6
2022-08-05T01:22:01.014Z,25.5
2022-08-05T01:23:00.645Z,25.5
2022-08-05T01:24:01.099Z,25.6
2022-08-05T01:25:01.088Z,25.5
2022-08-05T01:26:00.806Z,25.5
2022-08-05T01:27:00.530Z,25.6
2022-08-05T01:28:02.622Z,25.5
2022-08-05T01:29:04.254Z,25.5
2022-08-05T01:30:01.030Z,25.5
2022-08-05T01:31:00.844Z,25.5
2022-08-05T01:32:02.402Z,25.5
2022-08-05T01:33:00.845Z,25.5
2022-08-05T01:34:01.000Z,25.5
2022-08-05T01:35:00.767Z,25.5
2022-08-05T01:36:00.422Z,25.5
2022-08-05T01:37:01.033Z,25.5
2022-08-05T01:38:00.771Z,25.5
2022-08-05T01:39:01.289Z,25.4
2022-08-05T01:40:01.012Z,25.4
2022-08-05T01:41:01.528Z,25.4
2022-08-05T01:42:01.298Z,25.3
2022-08-05T01:43:01.664Z,25.3
2022-08-05T01:44:01.047Z,25.2
2022-08-05T01:45:02.251Z,25.1
2022-08-05T01:46:07.514Z,25.1
2022-08-05T01:47:00.534Z,25.1
2022-08-05T01:48:00.230Z,25.1
2022-08-05T01:48:59.892Z,25.1
2022-08-05T01:50:01.475Z,25.1
2022-08-05T01:51:00.587Z,25.1
2022-08-05T01:52:01.026Z,25.1
2022-08-05T01:53:00.872Z,25.1
2022-08-05T01:54:02.140Z,25.1
2022-08-05T01:55:01.323Z,25.2
2022-08-05T01:56:00.995Z,25.3
2022-08-05T01:58:11.651Z,25.3
2022-08-05T01:58:12.461Z,25.3
2022-08-05T01:59:01.986Z,25.3
2022-08-05T02:00:00.748Z,25.3
2022-08-05T02:01:00.416Z,25.3
2022-08-05T02:02:00.900Z,25.3
2022-08-05T02:03:00.631Z,25.3
2022-08-05T02:04:00.791Z,25.3
2022-08-05T02:05:00.439Z,25.3
2022-08-05T02:06:00.993Z,25.4
2022-08-05T02:07:03.541Z,25.4
2022-08-05T02:08:02.004Z,25.4
2022-08-05T02:09:00.876Z,25.4
2022-08-05T02:10:00.694Z,25.4
2022-08-05T02:11:00.603Z,25.5
2022-08-05T02:12:02.477Z,25.4
2022-08-05T02:13:01.430Z,25.4
2022-08-05T02:14:00.652Z,25.5
2022-08-05T02:15:03.017Z,25.5
2022-08-05T02:16:01.246Z,25.5
2022-08-05T02:17:05.495Z,25.5
2022-08-05T02:18:30.758Z,25.4
2022-08-05T02:19:01.176Z,25.3
2022-08-05T02:20:01.286Z,25.3
2022-08-05T02:21:00.852Z,25.3
2022-08-05T02:22:08.905Z,25.1
2022-08-05T02:23:01.515Z,25.1
2022-08-05T02:24:01.164Z,25.1
2022-08-05T02:25:02.726Z,25.1
2022-08-05T02:26:01.485Z,25
2022-08-05T02:27:09.096Z,25
2022-08-05T02:28:00.762Z,25
2022-08-05T02:29:01.243Z,25
2022-08-05T02:30:01.077Z,25
2022-08-05T02:31:01.354Z,24.9
2022-08-05T02:32:19.773Z,24.9
2022-08-05T02:33:01.011Z,24.8
2022-08-05T02:34:00.777Z,24.8
2022-08-05T02:35:09.824Z,24.8
2022-08-05T02:36:01.540Z,24.8
2022-08-05T02:37:15.769Z,24.8
2022-08-05T02:38:02.270Z,24.8
2022-08-05T02:39:00.969Z,24.8
2022-08-05T02:40:00.913Z,24.8
2022-08-05T02:41:00.583Z,24.8
2022-08-05T02:42:01.651Z,24.8
2022-08-05T02:43:01.249Z,24.8
2022-08-05T02:44:02.919Z,24.8
2022-08-05T02:45:01.046Z,24.8
2022-08-05T02:46:01.195Z,24.9
2022-08-05T02:47:01.349Z,24.9
2022-08-05T02:48:12.098Z,24.9
2022-08-05T02:49:01.162Z,24.9
2022-08-05T02:50:01.027Z,25
2022-08-05T02:51:00.861Z,25
2022-08-05T02:52:02.745Z,25
2022-08-05T02:53:02.491Z,25
2022-08-05T02:54:04.041Z,25
2022-08-05T02:55:02.008Z,25
2022-08-05T02:56:02.355Z,25
2022-08-05T02:57:01.408Z,25
2022-08-05T02:58:12.112Z,24.9
2022-08-05T02:59:01.106Z,24.8
2022-08-05T03:00:01.389Z,24.8
2022-08-05T03:01:02.006Z,24.8
2022-08-05T03:02:01.319Z,24.7
2022-08-05T03:03:01.147Z,24.7
2022-08-05T03:04:03.330Z,24.7
2022-08-05T03:05:00.853Z,24.6
2022-08-05T03:06:56.394Z,24.6
2022-08-05T03:07:02.403Z,24.6
2022-08-05T03:08:08.626Z,24.6
2022-08-05T03:09:01.881Z,24.6
2022-08-05T03:10:01.293Z,24.6
2022-08-05T03:11:53.669Z,24.6
2022-08-05T03:12:01.836Z,24.6
2022-08-05T03:14:03.351Z,24.5
2022-08-05T03:15:01.148Z,24.5
2022-08-05T03:16:00.769Z,24.5
2022-08-05T03:17:00.872Z,24.5
2022-08-05T03:18:00.715Z,24.5
2022-08-05T03:19:00.867Z,24.5
2022-08-05T03:20:00.882Z,24.5
2022-08-05T03:21:00.889Z,24.5
2022-08-05T03:22:00.572Z,24.5
2022-08-05T03:23:00.553Z,24.5
2022-08-05T03:24:00.875Z,24.5
2022-08-05T03:25:02.242Z,24.5
2022-08-05T03:26:04.585Z,24.5
2022-08-05T03:27:00.819Z,24.5
2022-08-05T03:28:00.768Z,24.5
2022-08-05T03:29:00.501Z,24.6
2022-08-05T03:30:08.072Z,24.6
2022-08-05T03:31:00.686Z,24.6
2022-08-05T03:32:00.732Z,24.6
2022-08-05T03:33:00.878Z,24.6
2022-08-05T03:34:00.618Z,24.6
2022-08-05T03:35:00.893Z,24.6
2022-08-05T03:36:00.637Z,24.6
2022-08-05T03:37:00.467Z,24.6
2022-08-05T03:38:00.562Z,24.6
2022-08-05T03:39:00.260Z,24.6
2022-08-05T03:40:03.983Z,24.6
2022-08-05T03:41:07.204Z,24.6
2022-08-05T03:42:00.924Z,24.6
2022-08-05T03:43:58.973Z,24.6
2022-08-05T03:44:11.246Z,24.6
2022-08-05T03:45:01.886Z,24.6
2022-08-05T03:46:01.023Z,24.6
2022-08-05T03:47:00.643Z,24.6
2022-08-05T03:48:00.968Z,24.6
2022-08-05T03:49:01.919Z,24.7
2022-08-05T03:50:01.367Z,24.7
2022-08-05T03:52:35.465Z,24.6
2022-08-05T03:52:38.778Z,24.6
2022-08-05T03:54:59.396Z,24.6
2022-08-05T03:55:54.209Z,24.6
2022-08-05T03:56:05.391Z,24.6
2022-08-05T03:56:11.574Z,24.6
2022-08-05T03:57:00.999Z,24.6
2022-08-05T03:58:01.224Z,24.6
2022-08-05T03:59:01.230Z,24.6
2022-08-05T04:00:01.698Z,24.5
2022-08-05T04:01:01.194Z,24.4
2022-08-05T04:02:01.178Z,24.4
2022-08-05T04:03:02.247Z,24.4
2022-08-05T04:04:10.018Z,24.4
2022-08-05T04:05:00.953Z,24.5
2022-08-05T04:06:01.055Z,24.5
2022-08-05T04:07:00.743Z,24.6
2022-08-05T04:08:01.411Z,24.6
2022-08-05T04:09:00.647Z,24.6
2022-08-05T04:10:01.702Z,24.6
2022-08-05T04:11:01.481Z,24.6
2022-08-05T04:12:01.341Z,24.7
2022-08-05T04:13:04.257Z,24.7
2022-08-05T04:14:01.254Z,24.7
2022-08-05T04:15:01.184Z,24.8
2022-08-05T04:16:04.462Z,24.7
2022-08-05T04:17:02.961Z,24.7
2022-08-05T04:18:03.178Z,24.8
2022-08-05T04:19:00.915Z,24.8
2022-08-05T04:20:00.638Z,24.8
2022-08-05T04:21:00.646Z,24.8
2022-08-05T04:22:09.352Z,24.8
2022-08-05T04:23:06.253Z,24.6
2022-08-05T04:24:06.709Z,24.5
2022-08-05T04:25:01.073Z,24.4
2022-08-05T04:26:01.152Z,24.3
2022-08-05T04:27:01.810Z,24.3
2022-08-05T04:28:12.841Z,24.3
2022-08-05T04:29:01.240Z,24.3
2022-08-05T04:30:03.503Z,24.3
2022-08-05T04:31:01.603Z,24.4
2022-08-05T04:32:01.088Z,24.5
2022-08-05T04:33:10.410Z,24.5
2022-08-05T04:34:18.783Z,24.5
2022-08-05T04:35:01.138Z,24.5
2022-08-05T04:36:16.831Z,24.5
2022-08-05T04:37:00.872Z,24.5
2022-08-05T04:38:15.598Z,24.4
2022-08-05T04:39:01.003Z,24.3
2022-08-05T04:40:01.419Z,24.4
2022-08-05T04:41:01.060Z,24.5
2022-08-05T04:42:01.755Z,24.6
2022-08-05T04:43:16.906Z,24.7
2022-08-05T04:44:01.508Z,24.8
2022-08-05T04:45:01.034Z,24.8
2022-08-05T04:46:00.851Z,24.8
2022-08-05T04:47:09.900Z,25
2022-08-05T04:48:01.517Z,25
2022-08-05T04:49:01.009Z,25.1
2022-08-05T04:50:11.246Z,25.1
2022-08-05T04:51:02.593Z,25
2022-08-05T04:52:00.831Z,25
2022-08-05T04:53:00.539Z,25
2022-08-05T04:54:01.248Z,25.1
2022-08-05T04:55:13.822Z,25.1
2022-08-05T04:56:32.356Z,25.2
2022-08-05T04:57:00.874Z,25.3
2022-08-05T04:58:00.585Z,25.3
2022-08-05T04:59:00.379Z,25.3
2022-08-05T05:00:01.314Z,25.4
2022-08-05T05:01:01.269Z,25.4
2022-08-05T05:02:07.208Z,25.4
2022-08-05T05:03:03.700Z,25.5
2022-08-05T05:04:01.221Z,25.5
2022-08-05T05:05:01.632Z,25.5
2022-08-05T05:06:39.594Z,25.5
2022-08-05T05:07:01.138Z,25.5
2022-08-05T05:08:02.022Z,25.6
2022-08-05T05:09:01.142Z,25.6
2022-08-05T05:10:02.135Z,25.6
2022-08-05T05:11:01.260Z,25.7
2022-08-05T05:12:02.920Z,25.8
2022-08-05T05:13:03.987Z,25.8
2022-08-05T05:14:01.345Z,26
2022-08-05T05:15:03.752Z,26.1
2022-08-05T05:16:02.261Z,26.1
2022-08-05T05:17:01.591Z,26.3
2022-08-05T05:18:01.147Z,26.4
2022-08-05T05:19:19.042Z,26.5
2022-08-05T05:20:01.027Z,26.6
2022-08-05T05:21:01.008Z,26.8
2022-08-05T05:22:03.567Z,27
2022-08-05T05:23:08.183Z,27.2
2022-08-05T05:24:03.710Z,27.3
2022-08-05T05:25:01.782Z,27.5
2022-08-05T05:26:01.380Z,27.6
2022-08-05T05:27:00.970Z,27.8
2022-08-05T05:28:01.085Z,27.8
2022-08-05T05:29:02.136Z,27.9
2022-08-05T05:30:04.652Z,28
2022-08-05T05:31:01.102Z,28.1
2022-08-05T05:32:01.005Z,28.1
2022-08-05T05:33:09.215Z,28.1
2022-08-05T05:34:01.901Z,28.1
2022-08-05T05:35:01.220Z,28
2022-08-05T05:36:01.026Z,28.1
2022-08-05T05:37:01.837Z,28.2
2022-08-05T05:38:02.001Z,28.3
2022-08-05T05:39:03.795Z,28.5
2022-08-05T05:40:01.031Z,28.5
2022-08-05T05:41:00.841Z,28.6
2022-08-05T05:42:01.674Z,28.8
2022-08-05T05:43:02.161Z,29.1
2022-08-05T05:44:01.588Z,29.2
2022-08-05T05:45:00.986Z,29.3
2022-08-05T05:46:01.317Z,29.3
2022-08-05T05:47:04.055Z,29.2
2022-08-05T05:48:06.061Z,29.1
2022-08-05T05:49:06.404Z,29.1
2022-08-05T05:50:01.430Z,29
2022-08-05T05:51:13.034Z,29
2022-08-05T05:52:01.435Z,29.3
2022-08-05T05:53:00.620Z,29.5
2022-08-05T05:54:06.002Z,29.5
2022-08-05T05:55:01.751Z,29.3
2022-08-05T05:56:03.054Z,29
2022-08-05T05:57:01.432Z,28.9
2022-08-05T05:58:01.972Z,28.9
2022-08-05T05:59:08.303Z,28.9
2022-08-05T06:00:01.316Z,29
2022-08-05T06:01:12.153Z,29.2
2022-08-05T06:02:03.038Z,29.6
2022-08-05T06:03:01.390Z,29.8
2022-08-05T06:04:12.713Z,30.1
2022-08-05T06:05:01.235Z,30.3
2022-08-05T06:06:02.272Z,30.6
2022-08-05T06:07:01.543Z,30.8
2022-08-05T06:08:02.109Z,31
2022-08-05T06:09:17.601Z,31.2
2022-08-05T06:10:04.646Z,31.3
2022-08-05T06:11:01.318Z,31.6
2022-08-05T06:12:02.912Z,31.6
2022-08-05T06:13:01.192Z,31.7
2022-08-05T06:14:15.082Z,31.8
2022-08-05T06:15:01.081Z,31.9
2022-08-05T06:16:30.169Z,32
2022-08-05T06:17:02.246Z,32.1
2022-08-05T06:18:01.179Z,32.1
2022-08-05T06:19:02.196Z,32
2022-08-05T06:20:00.930Z,32
2022-08-05T06:21:00.751Z,32
2022-08-05T06:22:00.392Z,32
2022-08-05T06:23:00.021Z,32
2022-08-05T06:24:01.629Z,32
2022-08-05T06:25:00.842Z,31.8
2022-08-05T06:26:20.809Z,31.8
2022-08-05T06:27:01.582Z,31.8
2022-08-05T06:28:10.965Z,31.7
2022-08-05T06:29:03.360Z,31.6
2022-08-05T06:30:02.819Z,31.4
2022-08-05T06:31:02.229Z,31.3
2022-08-05T06:32:01.176Z,31.3
2022-08-05T06:33:01.096Z,31.2
2022-08-05T06:34:07.998Z,31
2022-08-05T06:35:05.884Z,30.6
2022-08-05T06:36:07.208Z,30.5
2022-08-05T06:37:01.131Z,30.2
2022-08-05T06:38:10.173Z,30
2022-08-05T06:39:00.871Z,29.8
2022-08-05T06:40:00.626Z,29.6
2022-08-05T06:41:00.647Z,29.6
2022-08-05T06:42:01.221Z,29.5
2022-08-05T06:43:01.365Z,29.4
2022-08-05T06:44:00.898Z,29.3
2022-08-05T06:45:00.721Z,29.2
2022-08-05T06:46:06.441Z,29.1
2022-08-05T06:47:01.406Z,29.1
2022-08-05T06:48:36.841Z,29
2022-08-05T06:49:02.044Z,29
2022-08-05T06:50:05.005Z,28.9
2022-08-05T06:51:01.465Z,28.8
2022-08-05T06:52:02.372Z,28.8
2022-08-05T06:53:11.290Z,28.8
2022-08-05T06:54:02.030Z,28.8
2022-08-05T06:55:02.499Z,28.8
2022-08-05T06:56:01.046Z,28.8
2022-08-05T06:57:13.923Z,28.9
2022-08-05T06:58:20.381Z,28.9
2022-08-05T06:59:01.279Z,28.9
2022-08-05T07:00:01.377Z,28.9
2022-08-05T07:01:01.349Z,28.9
2022-08-05T07:02:01.217Z,29
2022-08-05T07:03:00.927Z,28.9
2022-08-05T07:04:00.607Z,28.9
2022-08-05T07:05:01.071Z,28.9
2022-08-05T07:06:01.324Z,28.9
2022-08-05T07:07:01.014Z,28.9
2022-08-05T07:08:00.704Z,28.9
2022-08-05T07:09:04.182Z,28.9
2022-08-05T07:10:03.476Z,29
2022-08-05T07:11:01.916Z,29
2022-08-05T07:12:02.715Z,29
2022-08-05T07:13:00.724Z,29
2022-08-05T07:14:01.294Z,29
2022-08-05T07:15:00.965Z,29
2022-08-05T07:16:04.629Z,29
2022-08-05T07:17:59.115Z,29
2022-08-05T07:18:09.579Z,29
2022-08-05T07:19:01.087Z,29
2022-08-05T07:20:32.954Z,29
2022-08-05T07:21:04.655Z,29
2022-08-05T07:22:01.609Z,29
2022-08-05T07:23:01.301Z,29
2022-08-05T07:24:01.542Z,29
2022-08-05T07:25:22.751Z,29
2022-08-05T07:26:01.482Z,29
2022-08-05T07:27:02.873Z,29.1
2022-08-05T07:28:05.822Z,29.1
2022-08-05T07:29:00.660Z,29.1
2022-08-05T07:30:22.802Z,29.1
2022-08-05T07:31:01.914Z,29.1
2022-08-05T07:32:03.973Z,29.2
2022-08-05T07:33:01.008Z,29.2
2022-08-05T07:34:01.043Z,29.3
2022-08-05T07:36:01.486Z,29.3
2022-08-05T07:36:05.961Z,29.3
2022-08-05T07:37:00.613Z,29.3
2022-08-05T07:38:00.915Z,29.3
2022-08-05T07:39:00.603Z,29.3
2022-08-05T07:40:32.125Z,29.3
2022-08-05T07:41:17.137Z,29.3
2022-08-05T07:42:13.507Z,29.3
2022-08-05T07:43:04.686Z,29.3
2022-08-05T07:44:01.055Z,29.3
2022-08-05T07:45:13.173Z,29.3
2022-08-05T07:46:01.411Z,29.3
2022-08-05T07:47:06.208Z,29.3
2022-08-05T07:48:01.268Z,29.3
2022-08-05T07:49:05.476Z,29.3
2022-08-05T07:50:16.635Z,29.3
2022-08-05T07:51:01.508Z,29.3
2022-08-05T07:52:01.012Z,29.3
2022-08-05T07:53:00.692Z,29.4
2022-08-05T07:54:01.913Z,29.5
2022-08-05T07:55:01.438Z,29.5
2022-08-05T07:56:05.159Z,29.5
2022-08-05T07:57:22.424Z,29.5
2022-08-05T07:58:03.012Z,29.5
2022-08-05T07:59:00.742Z,29.5
2022-08-05T08:00:00.537Z,29.4
2022-08-05T08:01:00.511Z,29.4
2022-08-05T08:02:01.484Z,29.3
2022-08-05T08:03:15.061Z,29.3
2022-08-05T08:04:00.979Z,29.3
2022-08-05T08:05:00.646Z,29.2
2022-08-05T08:06:00.505Z,29.2
2022-08-05T08:07:00.212Z,29.2
2022-08-05T08:08:01.218Z,29.3
2022-08-05T08:09:01.117Z,29.3
2022-08-05T08:10:00.817Z,29.3
2022-08-05T08:11:01.760Z,29.3
2022-08-05T08:12:09.320Z,29.3
2022-08-05T08:13:02.430Z,29.3
2022-08-05T08:14:01.293Z,29.3
2022-08-05T08:15:02.389Z,29.4
2022-08-05T08:16:35.277Z,29.4
2022-08-05T08:17:01.507Z,29.4
2022-08-05T08:18:01.846Z,29.5
2022-08-05T08:19:01.440Z,29.5
2022-08-05T08:20:22.572Z,29.5
2022-08-05T08:21:03.822Z,29.5
2022-08-05T08:22:00.639Z,29.5
2022-08-05T08:23:03.074Z,29.5
2022-08-05T08:24:04.914Z,29.4
2022-08-05T08:25:03.220Z,29.3
2022-08-05T08:26:02.755Z,29.2
2022-08-05T08:27:01.041Z,29.1
2022-08-05T08:28:01.282Z,29.1
2022-08-05T08:29:21.998Z,29
2022-08-05T08:30:05.571Z,29
2022-08-05T08:31:01.120Z,29
2022-08-05T08:32:00.866Z,29
2022-08-05T08:33:04.427Z,29
2022-08-05T08:34:01.082Z,29
2022-08-05T08:35:00.795Z,29
2022-08-05T08:36:29.863Z,28.9
2022-08-05T08:37:03.229Z,28.9
2022-08-05T08:38:00.804Z,28.8
2022-08-05T08:39:01.688Z,28.8
2022-08-05T08:40:00.856Z,28.8
2022-08-05T08:41:02.411Z,28.8
2022-08-05T08:42:02.245Z,28.8
2022-08-05T08:43:21.045Z,28.8
2022-08-05T08:45:17.202Z,28.7
2022-08-05T08:45:22.800Z,28.7
2022-08-05T08:46:01.541Z,28.6
2022-08-05T08:47:00.561Z,28.6
2022-08-05T08:48:12.379Z,28.6
2022-08-05T08:50:04.034Z,28.6
2022-08-05T08:50:23.139Z,28.6
2022-08-05T08:51:22.299Z,28.6
2022-08-05T08:52:03.455Z,28.5
2022-08-05T08:53:02.451Z,28.6
2022-08-05T08:54:00.753Z,28.6
2022-08-05T08:55:00.561Z,28.6
2022-08-05T08:56:04.048Z,28.6
2022-08-05T08:57:01.203Z,28.5
2022-08-05T08:58:01.199Z,28.5
2022-08-05T08:59:00.957Z,28.5
2022-08-05T09:00:00.643Z,28.5
2022-08-05T09:01:00.866Z,28.5
2022-08-05T09:02:00.939Z,28.5
2022-08-05T09:03:00.990Z,28.5
2022-08-05T09:04:00.659Z,28.5
2022-08-05T09:05:16.786Z,28.5
2022-08-05T09:06:08.700Z,28.5
2022-08-05T09:07:00.712Z,28.5
2022-08-05T09:08:00.807Z,28.5
2022-08-05T09:09:00.532Z,28.5
2022-08-05T09:10:00.819Z,28.5
2022-08-05T09:11:02.471Z,28.5
2022-08-05T09:12:06.025Z,28.5
2022-08-05T09:13:05.149Z,28.5
2022-08-05T09:14:54.279Z,28.5
2022-08-05T09:15:05.728Z,28.4
2022-08-05T09:16:04.561Z,28.3
2022-08-05T09:17:01.275Z,28.4
2022-08-05T09:18:00.967Z,28.4
2022-08-05T09:19:00.729Z,28.4
2022-08-05T09:20:02.772Z,28.4
2022-08-05T09:21:11.486Z,28.3
2022-08-05T09:22:30.837Z,28.3
2022-08-05T09:23:04.837Z,28.4
2022-08-05T09:24:02.520Z,28.4
2022-08-05T09:25:01.653Z,28.4
2022-08-05T09:26:09.577Z,28.4
2022-08-05T09:27:02.115Z,28.5
2022-08-05T09:28:04.479Z,28.5
2022-08-05T09:29:01.198Z,28.5
2022-08-05T09:30:06.301Z,28.6
2022-08-05T09:31:22.637Z,28.6
2022-08-05T09:32:43.055Z,28.6
2022-08-05T09:33:02.499Z,28.6
2022-08-05T09:34:00.658Z,28.6
2022-08-05T09:35:00.982Z,28.7
2022-08-05T09:36:16.298Z,28.7
2022-08-05T09:37:00.998Z,28.8
2022-08-05T09:38:16.907Z,28.8
2022-08-05T09:39:00.836Z,28.8
2022-08-05T09:40:00.618Z,28.8
2022-08-05T09:41:16.233Z,28.8
2022-08-05T09:42:01.741Z,28.8
2022-08-05T09:43:01.859Z,28.9
2022-08-05T09:44:01.245Z,28.9
2022-08-05T09:45:17.250Z,29
2022-08-05T09:46:15.599Z,29
2022-08-05T09:47:01.049Z,29
2022-08-05T09:48:02.268Z,28.9
2022-08-05T09:49:08.190Z,28.9
2022-08-05T09:50:03.361Z,28.9
2022-08-05T09:51:00.980Z,28.9
2022-08-05T09:52:01.107Z,28.9
2022-08-05T09:53:01.066Z,29
2022-08-05T09:54:00.847Z,29
2022-08-05T09:55:55.636Z,29
2022-08-05T09:56:04.699Z,29
2022-08-05T09:57:01.638Z,29
2022-08-05T09:58:00.802Z,29.1
2022-08-05T09:59:00.806Z,29.1
2022-08-05T10:00:04.742Z,29.1
2022-08-05T10:01:01.066Z,29.1
2022-08-05T10:02:00.975Z,29.1
2022-08-05T10:03:01.001Z,29.1
2022-08-05T10:04:00.779Z,29.1
2022-08-05T10:05:00.499Z,29.1
2022-08-05T10:06:03.618Z,29.1
2022-08-05T10:07:19.681Z,29.1
2022-08-05T10:08:34.947Z,29.2
2022-08-05T10:09:01.355Z,29.2
2022-08-05T10:10:14.212Z,29.2
2022-08-05T10:11:00.914Z,29.2
2022-08-05T10:12:04.789Z,29.3
2022-08-05T10:13:02.290Z,29.3
2022-08-05T10:14:00.739Z,29.3
2022-08-05T10:15:02.501Z,29.4
2022-08-05T10:16:01.153Z,29.5
2022-08-05T10:17:01.535Z,29.5
2022-08-05T10:18:00.649Z,29.5
2022-08-05T10:19:01.194Z,29.5
2022-08-05T10:20:03.865Z,29.5
2022-08-05T10:21:06.123Z,29.6
2022-08-05T10:22:01.180Z,29.6
2022-08-05T10:23:00.880Z,29.6
2022-08-05T10:24:06.246Z,29.6
2022-08-05T10:25:00.553Z,29.6
2022-08-05T10:26:00.796Z,29.6
2022-08-05T10:27:01.264Z,29.6
2022-08-05T10:28:16.645Z,29.6
2022-08-05T10:29:01.125Z,29.7
2022-08-05T10:30:07.105Z,29.7
2022-08-05T10:32:52.052Z,29.7
2022-08-05T10:32:52.877Z,29.7
2022-08-05T10:33:02.824Z,29.7
2022-08-05T10:34:01.491Z,29.8
2022-08-05T10:35:01.508Z,29.8
2022-08-05T10:36:00.867Z,29.8
2022-08-05T10:37:00.667Z,29.9
2022-08-05T10:38:00.447Z,29.9
2022-08-05T10:39:05.241Z,29.9
2022-08-05T10:40:04.534Z,29.9
2022-08-05T10:41:01.334Z,29.9
2022-08-05T10:42:01.458Z,29.9
2022-08-05T10:43:01.122Z,30
2022-08-05T10:44:00.836Z,30
2022-08-05T10:45:00.829Z,30
2022-08-05T10:46:06.809Z,30.1
2022-08-05T10:47:01.267Z,30.1
2022-08-05T10:48:30.076Z,30.1
2022-08-05T10:49:09.882Z,30.1
2022-08-05T10:50:20.695Z,30.1
2022-08-05T10:51:01.277Z,30.1
2022-08-05T10:52:02.395Z,30.2
2022-08-05T10:53:01.200Z,30.2
2022-08-05T10:54:05.611Z,30.2
2022-08-05T10:55:02.443Z,30.3
2022-08-05T10:56:04.971Z,30.3
2022-08-05T10:57:01.217Z,30.3
2022-08-05T10:58:00.881Z,30.3
2022-08-05T10:59:07.303Z,30.3
2022-08-05T11:00:04.249Z,30.3
2022-08-05T11:01:02.998Z,30.3
2022-08-05T11:02:04.941Z,30.4
2022-08-05T11:03:23.347Z,30.4
2022-08-05T11:04:01.270Z,30.5
2022-08-05T11:05:01.062Z,30.5
2022-08-05T11:06:00.809Z,30.5
2022-08-05T11:07:01.472Z,30.5
2022-08-05T11:08:02.863Z,30.5
2022-08-05T11:09:01.635Z,30.5
2022-08-05T11:10:03.636Z,30.6
2022-08-05T11:11:06.959Z,30.6
2022-08-05T11:12:01.515Z,30.6
2022-08-05T11:13:01.294Z,30.6
2022-08-05T11:14:01.007Z,30.6
2022-08-05T11:15:19.407Z,30.6
2022-08-05T11:16:02.111Z,30.6
2022-08-05T11:17:53.279Z,30.7
2022-08-05T11:18:03.922Z,30.8
2022-08-05T11:19:00.356Z,30.8
2022-08-05T11:20:16.849Z,30.8
2022-08-05T11:21:01.504Z,30.8
2022-08-05T11:22:04.120Z,30.8
2022-08-05T11:23:05.734Z,30.8
2022-08-05T11:24:05.536Z,30.8
2022-08-05T11:25:16.479Z,30.8
2022-08-05T11:26:05.697Z,30.8
2022-08-05T11:27:07.265Z,30.8
2022-08-05T11:28:01.280Z,30.8
2022-08-05T11:29:11.449Z,30.8
2022-08-05T11:30:01.378Z,30.8
2022-08-05T11:31:01.114Z,30.8
2022-08-05T11:32:08.484Z,30.9
2022-08-05T11:33:01.350Z,30.9
2022-08-05T11:34:01.568Z,30.9
2022-08-05T11:35:01.389Z,30.9
2022-08-05T11:36:07.471Z,31
2022-08-05T11:38:28.303Z,31
2022-08-05T11:38:37.314Z,31.1
2022-08-05T11:39:00.773Z,31.1
2022-08-05T11:40:03.010Z,31.1
2022-08-05T11:41:12.876Z,31.1
2022-08-05T11:42:12.812Z,31.1
2022-08-05T11:43:00.876Z,31.1
2022-08-05T11:44:07.040Z,31.2
2022-08-05T11:45:00.712Z,31.3
2022-08-05T11:46:23.478Z,31.3
2022-08-05T11:47:49.614Z,31.3
2022-08-05T11:48:02.381Z,31.3
2022-08-05T11:49:00.850Z,31.3
2022-08-05T11:50:00.645Z,31.4
2022-08-05T11:51:01.670Z,31.5
2022-08-05T11:52:16.941Z,31.5
2022-08-05T11:53:02.594Z,31.5
2022-08-05T11:54:02.352Z,31.6
2022-08-05T11:55:07.401Z,31.6
2022-08-05T11:56:01.197Z,31.6
2022-08-05T11:57:01.208Z,31.7
2022-08-05T11:58:09.711Z,31.8
2022-08-05T11:59:01.350Z,31.8
2022-08-05T12:00:01.253Z,31.8
2022-08-05T12:01:01.649Z,31.8
2022-08-05T12:02:00.836Z,31.8
2022-08-05T12:03:00.583Z,31.9
2022-08-05T12:04:00.339Z,31.9
2022-08-05T12:05:00.410Z,32
2022-08-05T12:06:00.664Z,32
2022-08-05T12:07:00.654Z,31.9
2022-08-05T12:08:10.271Z,31.9
2022-08-05T12:09:02.345Z,31.9
2022-08-05T12:10:06.083Z,31.8
2022-08-05T12:11:05.791Z,31.9
2022-08-05T12:12:01.238Z,31.9
2022-08-05T12:13:01.010Z,32
2022-08-05T12:14:04.256Z,32
2022-08-05T12:15:00.719Z,32
2022-08-05T12:16:01.351Z,32
2022-08-05T12:17:00.585Z,32
2022-08-05T12:18:03.785Z,32.1
2022-08-05T12:19:01.365Z,32.1
2022-08-05T12:20:26.288Z,32.1
2022-08-05T12:21:00.578Z,32.1
2022-08-05T12:22:01.481Z,32.2
2022-08-05T12:23:01.006Z,32.3
2022-08-05T12:24:04.936Z,32.3
2022-08-05T12:25:00.779Z,32.4
2022-08-05T12:26:00.750Z,32.5
2022-08-05T12:27:00.414Z,32.6
2022-08-05T12:28:02.447Z,32.7
2022-08-05T12:29:01.460Z,32.8
2022-08-05T12:30:01.088Z,32.8
2022-08-05T12:31:02.362Z,32.8
2022-08-05T12:32:01.728Z,32.8
2022-08-05T12:33:06.876Z,32.7
2022-08-05T12:34:00.845Z,32.7
2022-08-05T12:35:04.038Z,32.7
2022-08-05T12:36:01.341Z,32.8
2022-08-05T12:37:01.452Z,32.8
2022-08-05T12:38:01.376Z,32.7
2022-08-05T12:39:01.249Z,32.6
2022-08-05T12:40:03.123Z,32.6
2022-08-05T12:41:00.968Z,32.6
2022-08-05T12:42:00.817Z,32.6
2022-08-05T12:43:00.580Z,32.6
2022-08-05T12:44:00.876Z,32.7
2022-08-05T12:45:02.848Z,32.7
2022-08-05T12:46:00.815Z,32.8
2022-08-05T12:47:00.512Z,32.8
2022-08-05T12:48:26.861Z,32.8
2022-08-05T12:49:00.750Z,32.8
2022-08-05T12:50:04.653Z,32.8
2022-08-05T12:51:01.686Z,32.8
2022-08-05T12:52:14.425Z,32.8
2022-08-05T12:53:01.377Z,32.8
2022-08-05T12:54:00.666Z,32.7
2022-08-05T12:55:00.347Z,32.7
2022-08-05T12:56:01.496Z,32.7
2022-08-05T12:57:00.807Z,32.6
2022-08-05T12:58:50.632Z,32.7
2022-08-05T12:59:04.277Z,32.7
2022-08-05T13:02:00.689Z,32.8
2022-08-05T13:02:02.757Z,32.8
2022-08-05T13:02:07.487Z,32.8
2022-08-05T13:03:01.077Z,32.8
2022-08-05T13:04:00.716Z,32.9
2022-08-05T13:05:00.518Z,32.9
2022-08-05T13:06:00.158Z,32.9
2022-08-05T13:07:00.936Z,32.9
2022-08-05T13:08:01.546Z,33
2022-08-05T13:09:00.693Z,33
2022-08-05T13:10:00.373Z,33.1
2022-08-05T13:11:00.886Z,33.1
2022-08-05T13:12:03.479Z,33.2
2022-08-05T13:13:00.696Z,33.2
2022-08-05T13:14:04.754Z,33.2
2022-08-05T13:15:05.561Z,33.2
2022-08-05T13:16:01.124Z,33.1
2022-08-05T13:17:01.306Z,33.1
2022-08-05T13:18:01.314Z,33.1
2022-08-05T13:19:01.083Z,33.1
2022-08-05T13:20:00.915Z,33.1
2022-08-05T13:21:00.735Z,33.1
2022-08-05T13:22:00.485Z,33.1
2022-08-05T13:23:07.156Z,33.1
2022-08-05T13:24:02.150Z,33
2022-08-05T13:25:05.659Z,33
2022-08-05T13:26:02.317Z,33